Current Weather



TAF Data Links

METAR Data Links

Latest METAR/TAF Data


Available data for KAUS from the past 2 hours
AUSTIN, TX
Metar
KAUS 181753Z 32013G21KT 10SM SCT029 BKN038 22/14 A2980 RMK AO2 SLP085 T02170144 10233 20167 53008 $

17:53 UTC

Wind: 320° 13kt

Visibility: 10 SM

Sky: SCT 2900 ft

Temp: 22 deg C / 71.6 deg F

Dewpoint: 14 deg C / 57.2 deg F

Pressure: 29.8 inHg

TAF
KAUS 181723Z 1818/1924 32013G23KT P6SM SCT035 FM181900 32015G25KT P6SM BKN025 FM182200 33014G24KT P6SM BKN040 FM190200 31007KT P6SM SCT120 FM191500 34010G20KT P6SM SCT035


Available data for KEDC from the past 2 hours
AUSTIN EXEC, TX
Metar
KEDC 181835Z AUTO 33018G27KT 9SM BKN028 BKN033 OVC047 19/14 A2983 RMK AO2

18:35 UTC

Wind: 330° 18kt

Visibility: 9 SM

Sky: BKN 2800 ft

Temp: 19 deg C / 66.2 deg F

Dewpoint: 14 deg C / 57.2 deg F

Pressure: 29.83 inHg



Available data for KRYW from the past 2 hours
LAGO VISTA, TX
Metar
KRYW 181835Z AUTO 33010G20KT 290V350 10SM SCT023 SCT028 OVC046 19/14 A2986 RMK AO2 T01900136

18:35 UTC

Wind: 330° 10kt

Visibility: 10 SM

Sky: SCT 2300 ft

Temp: 19 deg C / 66.2 deg F

Dewpoint: 14 deg C / 57.2 deg F

Pressure: 29.86 inHg